Airfield :
LOGIN :

Register | Disclaimer

   EN    FR    IT 

 










Legend :    VFR   Marginal VFR   IFR   Intensive IFR   Very Intensive IFR
Visi :
Ceiling :
>= 8 km
>= 3000ft
5 to 8 km
1000 to 3000 ft
1500m to 5 km
500 to 1000 ft
800 to 1500m
200 to 500 ft
< 800m
< 200 ft
Symbols :   Thunderstorms  Fog  Heavy snow  Heavy precipitations  Wind > 20 kt
SIGMETs :     Misc.  Thunderstorms  Icing  Turbulence  Mountain Waves  Volcanic Ashes






- Airport Elevation : 1548 ft


LKNA - Náměšť Air Base

CURRENT METAR :
  • 290830Z 13013KT 4000 BR OVC004 01/00 Q1019 NOSIG RMK YLO YLO

EXPIRED METARs :
  • 290800Z 13012KT 4000 BR OVC005 01/00 Q1019 NOSIG RMK YLO YLO
  • 290730Z 13013KT 3500 BR OVC004 01/00 Q1019 NOSIG RMK YLO YLO
  • 290700Z 12012KT 3500 BR OVC004 01/00 Q1019 NOSIG RMK YLO YLO
  • 290630Z 13011KT 3000 OVC005 01/00 Q1018 NOSIG RMK YLO YLO
  • 290617Z 13011KT 4000 BR OVC005 01/00 Q1018 RMK YLO
  • 290600Z 13011KT 6000 OVC005 01/M00 Q1018 NOSIG RMK YLO YLO

TAF TAF LKNA
Valid from the 29 at 06:00 until the 30 at 06:00 UTC


290500Z 2906/3006 13010KT 8000 OVC005
TEMPO 2906/2912 3000 BR DZ OVC002
TEMPO 2906/2914 13014G24KT
BECMG 2910/2912 9999 OVC010
BECMG 2915/2917 14008KT
BECMG 2920/2922 SCT020
TEMPO 3001/3005 3000 BR OVC006



MET'MAP, your aeronautical weather chart ! - Copyright ORBIFLY December 2007 - Disclaimer

ORBIFLY MET'MAP TEAM :

Programming & Development : Alexandra Zaïnal
Original concept : Baudouin d'Aumeries
Technical & hardware support : Manuel Goepfert
Assistance : Marc-Olivier Méhu




SOURCES & CREDITS :

   NOAA